Time;durP1;ratioP1;P1;durP2;ratioP2;P2;SDS_P1;SDS_P2;PMS_P1;PMS_P2;Temp;Humidity;BMP_temperature;BMP_pressure;BME280_temperature;BME280_humidity;BME280_pressure;Samples;Min_cycle;Max_cycle;Signal;HPM_P1;HPM_P2
2022/07/12 00:00:52;;;;;;;0.30;0.30;;;18.50;63.70;;;;;;4935798;28;20512;-71
2022/07/12 00:03:18;;;;;;;0.30;0.30;;;18.40;63.70;;;;;;4958868;28;20034;-71
2022/07/12 00:05:43;;;;;;;1.65;0.40;;;18.40;64.00;;;;;;4971108;28;20115;-72
2022/07/12 00:08:09;;;;;;;0.35;0.35;;;18.40;63.90;;;;;;4952342;28;20890;-71
2022/07/12 00:10:34;;;;;;;0.60;0.47;;;18.40;63.90;;;;;;4961654;28;20027;-72
2022/07/12 00:13:00;;;;;;;0.40;0.40;;;18.30;63.90;;;;;;4926750;28;20111;-72
2022/07/12 00:15:25;;;;;;;0.75;0.32;;;18.30;64.10;;;;;;4927950;28;20101;-71
2022/07/12 00:17:51;;;;;;;0.50;0.40;;;18.30;64.10;;;;;;4962262;28;20035;-70
2022/07/12 00:20:16;;;;;;;0.40;0.35;;;18.20;64.10;;;;;;4955844;28;20550;-71
2022/07/12 00:22:42;;;;;;;1.00;0.30;;;18.20;64.20;;;;;;4927488;28;20563;-72
2022/07/12 00:25:08;;;;;;;0.93;0.40;;;18.20;64.30;;;;;;4931827;28;20165;-73
2022/07/12 00:27:34;;;;;;;1.20;0.40;;;18.10;64.40;;;;;;4935637;28;20098;-71
2022/07/12 00:29:59;;;;;;;0.32;0.32;;;18.10;64.60;;;;;;4957128;28;20152;-71
2022/07/12 00:32:25;;;;;;;0.30;0.30;;;18.00;64.50;;;;;;4938292;28;20090;-73
2022/07/12 00:34:50;;;;;;;0.45;0.40;;;18.00;64.60;;;;;;4945929;28;20039;-71
2022/07/12 00:37:16;;;;;;;0.40;0.40;;;18.00;64.70;;;;;;4932354;28;20070;-71
2022/07/12 00:39:41;;;;;;;0.50;0.50;;;17.90;64.70;;;;;;4950770;28;20074;-73
2022/07/12 00:42:07;;;;;;;0.75;0.50;;;17.90;64.90;;;;;;4951314;28;20081;-71
2022/07/12 00:44:33;;;;;;;0.60;0.45;;;17.90;65.00;;;;;;4945413;28;20122;-72
2022/07/12 00:47:02;;;;;;;0.50;0.50;;;17.80;65.00;;;;;;4932883;28;20053;-71
2022/07/12 00:49:27;;;;;;;0.47;0.40;;;17.80;65.00;;;;;;4964268;28;20519;-72
2022/07/12 00:51:54;;;;;;;0.20;0.20;;;17.70;65.10;;;;;;4938292;28;20552;-71
2022/07/12 00:54:19;;;;;;;0.40;0.40;;;17.70;65.20;;;;;;4944510;28;20045;-71
2022/07/12 00:56:45;;;;;;;1.27;0.30;;;17.70;65.30;;;;;;4933379;28;20054;-71
2022/07/12 00:59:11;;;;;;;0.73;0.40;;;17.60;65.40;;;;;;4939264;28;20034;-71
2022/07/12 01:01:36;;;;;;;0.43;0.43;;;17.60;65.50;;;;;;4948635;28;20034;-71
2022/07/12 01:04:02;;;;;;;0.57;0.38;;;17.50;65.60;;;;;;4948673;28;21310;-71
2022/07/12 01:06:27;;;;;;;0.50;0.35;;;17.50;65.70;;;;;;4930292;28;20026;-73
2022/07/12 01:08:53;;;;;;;1.52;0.40;;;17.50;65.80;;;;;;4942583;28;20048;-72
2022/07/12 01:11:19;;;;;;;0.43;0.43;;;17.40;65.80;;;;;;4957423;28;20688;-71
2022/07/12 01:13:44;;;;;;;0.68;0.68;;;17.40;65.90;;;;;;4962038;28;20101;-72
2022/07/12 01:16:10;;;;;;;0.40;0.40;;;17.30;66.10;;;;;;4929052;28;20047;-74
2022/07/12 01:18:36;;;;;;;0.40;0.40;;;17.30;66.10;;;;;;4947837;28;20102;-71
2022/07/12 01:21:03;;;;;;;0.43;0.40;;;17.20;66.20;;;;;;4968021;28;20519;-71
2022/07/12 01:23:28;;;;;;;0.30;0.30;;;17.20;66.40;;;;;;4947081;28;20023;-72
2022/07/12 01:25:54;;;;;;;0.50;0.50;;;17.10;66.40;;;;;;4953333;28;20049;-71
2022/07/12 01:28:19;;;;;;;0.80;0.45;;;17.10;66.50;;;;;;4938756;28;20027;-72
2022/07/12 01:30:47;;;;;;;0.70;0.50;;;17.10;66.80;;;;;;4920006;28;20094;-72
2022/07/12 01:33:12;;;;;;;0.60;0.50;;;17.00;66.80;;;;;;4939157;28;20026;-71
2022/07/12 01:35:38;;;;;;;0.47;0.45;;;17.00;66.90;;;;;;4939583;28;20032;-71
2022/07/12 01:38:03;;;;;;;0.30;0.30;;;16.90;67.00;;;;;;4934808;28;20030;-70
2022/07/12 01:40:29;;;;;;;0.50;0.40;;;16.90;67.20;;;;;;4949728;28;20047;-70
2022/07/12 01:42:54;;;;;;;0.73;0.45;;;16.80;67.20;;;;;;4931530;28;20043;-74
2022/07/12 01:45:20;;;;;;;1.02;0.60;;;16.80;67.30;;;;;;4927868;28;20754;-72
2022/07/12 01:47:45;;;;;;;0.52;0.52;;;16.80;67.40;;;;;;4948378;28;20035;-73
2022/07/12 01:50:11;;;;;;;0.80;0.55;;;16.70;67.50;;;;;;4932841;28;20034;-70
2022/07/12 01:52:38;;;;;;;0.32;0.32;;;16.70;67.60;;;;;;4938833;28;20042;-71
2022/07/12 01:55:03;;;;;;;0.40;0.40;;;16.70;67.80;;;;;;4918163;28;20034;-71
2022/07/12 01:57:29;;;;;;;0.32;0.32;;;16.60;67.70;;;;;;4948152;28;20050;-71
2022/07/12 01:59:55;;;;;;;0.73;0.40;;;16.60;68.00;;;;;;4966434;28;20043;-70
2022/07/12 02:02:21;;;;;;;1.02;0.60;;;16.60;68.10;;;;;;4951666;28;20038;-71
2022/07/12 02:04:46;;;;;;;0.60;0.50;;;16.50;68.30;;;;;;4940780;28;20070;-72
2022/07/12 02:07:12;;;;;;;1.08;0.40;;;16.50;68.40;;;;;;4933857;28;20035;-72
2022/07/12 02:09:38;;;;;;;0.50;0.50;;;16.40;68.40;;;;;;4954301;28;20033;-71
2022/07/12 02:12:04;;;;;;;0.75;0.57;;;16.40;68.40;;;;;;4937843;28;20042;-70
2022/07/12 02:14:29;;;;;;;1.50;0.50;;;16.40;68.60;;;;;;4946608;28;20049;-71
2022/07/12 02:16:55;;;;;;;0.70;0.52;;;16.30;68.50;;;;;;4920788;28;20120;-72
2022/07/12 02:19:20;;;;;;;0.70;0.60;;;16.30;68.60;;;;;;4954247;28;20468;-71
2022/07/12 02:21:46;;;;;;;0.47;0.47;;;16.30;68.80;;;;;;4945167;28;20038;-71
2022/07/12 02:24:11;;;;;;;0.40;0.40;;;16.30;68.80;;;;;;4945301;28;20113;-69
2022/07/12 02:26:37;;;;;;;1.35;0.60;;;16.20;68.80;;;;;;4946774;28;20035;-69
2022/07/12 02:29:03;;;;;;;0.82;0.63;;;16.20;68.90;;;;;;4921127;28;20033;-70
2022/07/12 02:31:29;;;;;;;1.95;0.50;;;16.20;68.90;;;;;;4950130;28;20481;-72
2022/07/12 02:33:54;;;;;;;0.60;0.50;;;16.10;69.10;;;;;;4955203;28;20050;-72
2022/07/12 02:36:20;;;;;;;1.40;0.60;;;16.10;69.20;;;;;;4946350;28;20039;-70
2022/07/12 02:38:45;;;;;;;1.85;0.50;;;16.10;69.30;;;;;;4932233;28;20042;-71
2022/07/12 02:41:11;;;;;;;0.55;0.50;;;16.00;69.20;;;;;;4934354;28;20031;-71
2022/07/12 02:43:36;;;;;;;0.45;0.45;;;16.00;69.30;;;;;;4935953;28;20044;-70
2022/07/12 02:46:11;;;;;;;0.55;0.50;;;16.00;69.40;;;;;;4940625;28;20023;-71
2022/07/12 02:48:37;;;;;;;0.65;0.43;;;16.00;69.80;;;;;;4943998;28;20031;-71
2022/07/12 02:51:03;;;;;;;0.50;0.50;;;15.90;69.60;;;;;;4955906;28;20034;-72
2022/07/12 02:53:29;;;;;;;0.50;0.50;;;15.90;69.70;;;;;;4982681;28;20030;-71
2022/07/12 02:55:54;;;;;;;0.63;0.63;;;15.90;69.80;;;;;;4944712;28;20039;-70
2022/07/12 02:58:20;;;;;;;2.42;0.70;;;15.80;69.80;;;;;;4934991;28;20085;-71
2022/07/12 03:00:45;;;;;;;1.45;0.60;;;15.80;70.00;;;;;;4934604;28;20059;-70
2022/07/12 03:03:12;;;;;;;0.43;0.43;;;15.80;70.00;;;;;;4954511;28;20066;-70
2022/07/12 03:05:38;;;;;;;0.60;0.60;;;15.70;70.20;;;;;;4970202;28;20027;-71
2022/07/12 03:08:04;;;;;;;0.80;0.60;;;15.70;70.20;;;;;;4949384;28;20065;-71
2022/07/12 03:10:30;;;;;;;1.45;0.60;;;15.70;70.40;;;;;;4959942;28;20683;-71
2022/07/12 03:12:55;;;;;;;0.60;0.45;;;15.70;70.40;;;;;;4925657;28;20035;-70
2022/07/12 03:15:21;;;;;;;0.40;0.40;;;15.70;70.50;;;;;;4938382;28;20830;-70
2022/07/12 03:17:46;;;;;;;0.88;0.70;;;15.60;70.50;;;;;;4954848;28;20553;-70
2022/07/12 03:20:14;;;;;;;0.73;0.45;;;15.60;70.60;;;;;;4947341;28;20044;-70
2022/07/12 03:22:43;;;;;;;0.73;0.50;;;15.50;70.60;;;;;;4977896;28;20038;-72
2022/07/12 03:25:09;;;;;;;1.90;0.70;;;15.50;70.80;;;;;;4925766;28;20038;-70
2022/07/12 03:27:34;;;;;;;1.05;0.60;;;15.50;70.70;;;;;;4950098;28;20094;-71
2022/07/12 03:30:00;;;;;;;0.60;0.60;;;15.50;70.80;;;;;;4952510;28;20061;-71
2022/07/12 03:32:26;;;;;;;0.50;0.47;;;15.50;70.80;;;;;;4950040;28;20042;-70
2022/07/12 03:34:51;;;;;;;0.50;0.50;;;15.40;70.90;;;;;;4967253;28;20124;-70
2022/07/12 03:37:17;;;;;;;0.45;0.45;;;15.40;70.90;;;;;;4940516;28;20038;-70
2022/07/12 03:39:43;;;;;;;1.20;0.63;;;15.40;71.00;;;;;;4943389;28;20039;-70
2022/07/12 03:42:08;;;;;;;0.95;0.50;;;15.30;71.00;;;;;;4943650;28;20039;-71
2022/07/12 03:44:34;;;;;;;0.47;0.47;;;15.30;71.10;;;;;;4942196;28;20049;-71
2022/07/12 03:46:59;;;;;;;0.50;0.50;;;15.30;71.10;;;;;;4960222;28;20034;-71
2022/07/12 03:49:25;;;;;;;0.60;0.60;;;15.30;71.20;;;;;;4959299;28;20042;-70
2022/07/12 03:51:50;;;;;;;1.20;0.80;;;15.20;71.30;;;;;;4916760;28;20113;-70
2022/07/12 03:54:16;;;;;;;0.98;0.68;;;15.20;71.30;;;;;;4958766;28;20079;-72
2022/07/12 03:59:26;;;;;;;1.15;0.70;;;15.10;71.50;;;;;;4942168;28;20097;-71
2022/07/12 04:01:51;;;;;;;0.68;0.40;;;15.10;71.50;;;;;;4956841;28;20047;-70
2022/07/12 04:04:17;;;;;;;3.22;0.50;;;15.10;71.60;;;;;;4950473;28;20069;-71
2022/07/12 04:06:42;;;;;;;1.50;0.60;;;15.10;71.60;;;;;;4953899;28;20573;-72
2022/07/12 04:09:08;;;;;;;2.05;0.70;;;15.00;71.60;;;;;;4928597;28;20077;-70
2022/07/12 04:11:33;;;;;;;0.60;0.60;;;15.00;71.80;;;;;;4950874;28;20065;-70
2022/07/12 04:13:59;;;;;;;0.50;0.50;;;15.00;71.80;;;;;;4950597;28;20065;-69
2022/07/12 04:16:25;;;;;;;0.60;0.60;;;15.00;71.90;;;;;;4953405;28;20047;-71
2022/07/12 04:18:50;;;;;;;1.15;0.52;;;14.90;71.90;;;;;;4931606;28;20473;-71
2022/07/12 04:21:16;;;;;;;0.68;0.60;;;14.90;71.90;;;;;;4967292;28;20504;-70
2022/07/12 04:23:41;;;;;;;0.68;0.52;;;14.90;72.10;;;;;;4961945;28;20102;-70
2022/07/12 04:26:07;;;;;;;2.33;0.70;;;14.90;72.20;;;;;;4933809;28;20381;-70
2022/07/12 04:28:32;;;;;;;0.68;0.68;;;14.90;72.20;;;;;;4936279;28;20586;-70
2022/07/12 04:30:58;;;;;;;1.17;0.60;;;14.90;72.50;;;;;;4947877;28;20042;-70
2022/07/12 04:33:23;;;;;;;0.93;0.57;;;14.90;72.40;;;;;;4940618;28;20081;-71
2022/07/12 04:35:49;;;;;;;1.25;0.80;;;14.80;72.50;;;;;;4961569;28;20085;-71
2022/07/12 04:38:14;;;;;;;0.95;0.70;;;14.90;72.70;;;;;;4957929;28;20089;-71
2022/07/12 04:40:40;;;;;;;0.60;0.60;;;14.90;72.60;;;;;;4948246;28;20052;-71
2022/07/12 04:43:05;;;;;;;0.50;0.50;;;14.90;72.70;;;;;;4942314;28;20031;-71
2022/07/12 04:45:31;;;;;;;1.25;0.68;;;14.90;72.80;;;;;;4957625;28;20039;-72
2022/07/12 04:47:56;;;;;;;0.75;0.75;;;14.90;72.80;;;;;;4965453;28;20080;-70
2022/07/12 04:50:22;;;;;;;1.00;0.90;;;14.90;73.00;;;;;;4961760;28;20065;-70
2022/07/12 04:52:48;;;;;;;0.65;0.52;;;14.90;73.30;;;;;;4943473;28;20066;-72
2022/07/12 04:55:13;;;;;;;0.70;0.70;;;14.90;73.50;;;;;;4945424;28;20491;-71
2022/07/12 04:57:39;;;;;;;0.90;0.50;;;14.90;73.60;;;;;;4972274;28;20042;-70
2022/07/12 05:00:05;;;;;;;4.45;0.82;;;14.90;73.80;;;;;;4952162;28;20102;-70
2022/07/12 05:02:31;;;;;;;1.65;0.70;;;15.00;73.80;;;;;;4983567;28;20057;-72
2022/07/12 05:04:57;;;;;;;1.27;1.10;;;15.00;73.90;;;;;;4977558;28;20047;-70
2022/07/12 05:07:22;;;;;;;1.48;1.15;;;15.00;73.90;;;;;;4957901;28;20037;-71
2022/07/12 05:09:48;;;;;;;1.27;0.80;;;15.10;74.30;;;;;;4934258;28;20031;-72
2022/07/12 05:12:14;;;;;;;0.88;0.88;;;15.10;74.40;;;;;;4945876;28;20419;-73
2022/07/12 05:14:39;;;;;;;1.02;0.85;;;15.10;74.40;;;;;;4951583;28;20548;-70
2022/07/12 05:17:05;;;;;;;0.70;0.70;;;15.10;74.30;;;;;;4942809;28;20551;-72
2022/07/12 05:19:30;;;;;;;1.98;0.80;;;15.20;74.40;;;;;;4966420;28;20112;-71
2022/07/12 05:21:56;;;;;;;1.38;0.77;;;15.20;74.40;;;;;;4951467;28;20043;-72
2022/07/12 05:24:21;;;;;;;0.80;0.80;;;15.30;74.40;;;;;;4941862;28;20034;-72
2022/07/12 05:26:47;;;;;;;3.17;0.88;;;15.30;74.30;;;;;;4950764;28;20128;-71
2022/07/12 05:29:13;;;;;;;0.90;0.90;;;15.30;74.40;;;;;;4948842;28;20095;-70
2022/07/12 05:31:38;;;;;;;2.20;1.42;;;15.40;74.50;;;;;;4941814;28;20047;-71
2022/07/12 05:34:04;;;;;;;1.00;0.80;;;15.40;74.50;;;;;;4940246;28;20530;-71
2022/07/12 05:36:30;;;;;;;4.03;1.15;;;15.50;74.60;;;;;;4938947;28;20070;-71
2022/07/12 05:38:56;;;;;;;1.40;1.10;;;15.50;74.60;;;;;;4944246;28;20046;-71
2022/07/12 05:41:21;;;;;;;4.00;1.25;;;15.60;74.80;;;;;;4936936;28;20039;-71
2022/07/12 05:43:47;;;;;;;8.73;1.55;;;15.60;74.70;;;;;;4946164;28;20100;-71
2022/07/12 05:46:12;;;;;;;6.57;1.20;;;15.70;75.00;;;;;;4938720;28;20063;-70
2022/07/12 05:48:41;;;;;;;4.40;1.00;;;15.70;75.00;;;;;;4925364;28;20411;-72
2022/07/12 05:53:50;;;;;;;4.80;0.93;;;15.90;75.20;;;;;;4952044;28;20543;-70
2022/07/12 05:56:16;;;;;;;4.35;1.20;;;15.90;75.20;;;;;;4935631;28;20043;-71
2022/07/12 05:58:42;;;;;;;8.43;1.20;;;16.00;75.20;;;;;;4938474;28;20167;-72
2022/07/12 06:01:07;;;;;;;4.80;0.90;;;16.10;75.30;;;;;;4935502;28;20569;-71
2022/07/12 06:03:33;;;;;;;1.65;0.95;;;16.20;75.30;;;;;;4949620;28;20116;-71
2022/07/12 06:05:59;;;;;;;2.25;1.00;;;16.30;75.30;;;;;;4938151;28;20095;-71
2022/07/12 06:08:24;;;;;;;1.63;0.98;;;16.40;75.30;;;;;;4940729;28;20114;-70
2022/07/12 06:10:50;;;;;;;3.92;1.20;;;16.40;75.20;;;;;;4955936;28;20105;-71
2022/07/12 06:13:15;;;;;;;3.00;1.00;;;16.50;75.20;;;;;;4947473;28;20066;-72
2022/07/12 06:15:41;;;;;;;1.83;1.05;;;16.60;75.10;;;;;;4972268;28;20122;-72
2022/07/12 06:18:06;;;;;;;1.98;1.30;;;16.60;75.00;;;;;;4945015;28;20133;-72
2022/07/12 06:20:32;;;;;;;3.83;1.40;;;16.70;75.10;;;;;;4939752;28;20042;-71
2022/07/12 06:22:58;;;;;;;4.53;2.65;;;16.70;75.10;;;;;;4963230;28;20077;-70
2022/07/12 06:25:23;;;;;;;9.00;3.17;;;16.80;75.10;;;;;;4926616;28;20050;-72
2022/07/12 06:27:49;;;;;;;8.82;5.35;;;16.90;75.20;;;;;;4935925;28;20567;-74
2022/07/12 06:30:19;;;;;;;8.93;4.43;;;17.00;75.10;;;;;;4932456;28;20260;-75
2022/07/12 06:32:45;;;;;;;11.52;6.43;;;17.10;74.90;;;;;;4937616;28;20136;-70
2022/07/12 06:35:11;;;;;;;9.38;7.10;;;17.20;74.90;;;;;;4940844;28;20039;-72
2022/07/12 06:37:36;;;;;;;13.05;6.03;;;17.40;74.80;;;;;;4968784;28;20504;-71
2022/07/12 06:40:02;;;;;;;11.70;5.85;;;17.50;74.60;;;;;;4943425;28;20038;-71
2022/07/12 06:42:28;;;;;;;10.25;6.05;;;17.60;74.40;;;;;;4942286;28;20043;-70
2022/07/12 06:44:54;;;;;;;13.32;5.45;;;17.80;74.30;;;;;;4941080;28;20031;-71
2022/07/12 06:47:20;;;;;;;4.95;3.10;;;18.00;74.10;;;;;;4893475;28;20039;-72
2022/07/12 06:49:45;;;;;;;5.00;3.22;;;18.10;73.90;;;;;;4947077;28;20126;-71
2022/07/12 06:52:11;;;;;;;3.28;2.00;;;18.30;73.50;;;;;;4939158;28;20116;-71
2022/07/12 06:54:36;;;;;;;3.88;2.60;;;18.50;73.20;;;;;;4952772;28;20041;-70
2022/07/12 06:57:02;;;;;;;4.93;2.08;;;18.60;73.00;;;;;;4954754;28;20035;-70
2022/07/12 06:59:28;;;;;;;6.22;2.58;;;18.70;72.70;;;;;;4959873;28;20045;-70
2022/07/12 07:01:55;;;;;;;3.63;2.25;;;18.90;72.50;;;;;;4918595;28;20050;-72
2022/07/12 07:04:21;;;;;;;2.45;1.63;;;19.00;72.10;;;;;;4963758;28;20085;-70
2022/07/12 07:06:47;;;;;;;2.90;1.55;;;19.20;71.90;;;;;;4946589;28;20039;-71
2022/07/12 07:09:14;;;;;;;7.07;1.80;;;19.30;71.60;;;;;;4941376;28;20517;-72
2022/07/12 07:11:40;;;;;;;4.88;1.20;;;19.40;71.30;;;;;;4959073;28;20236;-72
2022/07/12 07:14:05;;;;;;;7.53;1.15;;;19.50;71.10;;;;;;4933614;28;20617;-72
2022/07/12 07:16:31;;;;;;;3.38;1.00;;;19.70;70.80;;;;;;4946097;28;20038;-71
2022/07/12 07:18:57;;;;;;;1.23;1.10;;;19.70;70.40;;;;;;4962629;28;20042;-71
2022/07/12 07:21:22;;;;;;;1.10;0.90;;;19.80;70.10;;;;;;4965492;28;20030;-72
2022/07/12 07:23:48;;;;;;;1.15;0.90;;;19.90;69.90;;;;;;4953858;28;20605;-73
2022/07/12 07:26:14;;;;;;;0.73;0.73;;;20.10;69.70;;;;;;4963096;28;20101;-71
2022/07/12 07:31:24;;;;;;;1.27;0.60;;;20.40;69.10;;;;;;4926482;28;20049;-72
2022/07/12 07:33:49;;;;;;;0.80;0.63;;;20.60;68.70;;;;;;4961898;28;20047;-72
2022/07/12 07:36:15;;;;;;;2.47;0.80;;;20.80;68.40;;;;;;4961091;28;20140;-71
2022/07/12 07:38:40;;;;;;;0.70;0.63;;;21.00;67.90;;;;;;4945625;28;20046;-72
2022/07/12 07:41:06;;;;;;;1.15;0.70;;;21.10;67.40;;;;;;4939244;28;20026;-72
2022/07/12 07:43:31;;;;;;;0.95;0.70;;;21.30;67.10;;;;;;4950285;28;20207;-72
2022/07/12 07:45:57;;;;;;;0.65;0.50;;;21.50;66.60;;;;;;4945197;28;20062;-72
2022/07/12 07:48:22;;;;;;;3.38;0.55;;;21.60;66.80;;;;;;4961166;28;20507;-71
2022/07/12 07:50:48;;;;;;;0.73;0.73;;;21.80;65.60;;;;;;4958333;28;20057;-72
2022/07/12 07:53:14;;;;;;;2.05;0.50;;;21.90;65.20;;;;;;4975835;28;20098;-72
2022/07/12 07:55:40;;;;;;;0.50;0.50;;;22.10;64.80;;;;;;4956756;28;20186;-71
2022/07/12 07:58:05;;;;;;;2.03;0.50;;;22.10;64.40;;;;;;4932369;28;20790;-72
2022/07/12 08:00:31;;;;;;;0.50;0.50;;;22.20;64.80;;;;;;4965577;28;20038;-71
2022/07/12 08:02:56;;;;;;;0.82;0.80;;;22.30;63.70;;;;;;4960078;28;20520;-71
2022/07/12 08:05:22;;;;;;;1.80;0.70;;;22.40;63.40;;;;;;4935626;28;20112;-72
2022/07/12 08:07:47;;;;;;;2.67;0.70;;;22.60;63.00;;;;;;4945054;28;20049;-71
2022/07/12 08:10:13;;;;;;;2.25;0.43;;;22.70;62.60;;;;;;4953760;28;20034;-71
2022/07/12 08:12:38;;;;;;;0.43;0.43;;;22.80;62.20;;;;;;4934494;28;20041;-71
2022/07/12 08:15:04;;;;;;;0.63;0.50;;;22.80;61.70;;;;;;4960729;28;20070;-72
2022/07/12 08:17:30;;;;;;;0.60;0.60;;;22.80;61.50;;;;;;4961237;28;20063;-71
2022/07/12 08:19:55;;;;;;;0.65;0.65;;;22.80;61.00;;;;;;4943718;28;20062;-71
2022/07/12 08:22:22;;;;;;;0.98;0.55;;;22.90;60.80;;;;;;4945672;28;20134;-73
2022/07/12 08:24:47;;;;;;;0.95;0.88;;;23.10;60.50;;;;;;4929560;28;20463;-72
2022/07/12 08:27:13;;;;;;;0.70;0.65;;;23.20;60.10;;;;;;4969655;28;20567;-74
2022/07/12 08:29:38;;;;;;;0.85;0.80;;;23.30;59.70;;;;;;4955313;28;20038;-71
2022/07/12 08:32:05;;;;;;;0.75;0.75;;;23.40;59.20;;;;;;4924866;28;20582;-72
2022/07/12 08:34:31;;;;;;;1.30;0.70;;;23.50;58.90;;;;;;4974798;28;20046;-72
2022/07/12 08:36:56;;;;;;;0.82;0.80;;;23.50;58.60;;;;;;4963548;28;20494;-71
2022/07/12 08:39:22;;;;;;;1.52;0.60;;;23.70;58.30;;;;;;4942676;28;20039;-73
2022/07/12 08:41:47;;;;;;;1.92;0.75;;;23.90;58.00;;;;;;4973542;28;20050;-72
2022/07/12 08:44:13;;;;;;;1.00;0.70;;;24.00;57.70;;;;;;4965517;28;20491;-72
2022/07/12 08:46:39;;;;;;;1.00;0.70;;;24.20;57.30;;;;;;4960605;28;20038;-72
2022/07/12 08:49:06;;;;;;;1.67;0.57;;;24.30;56.90;;;;;;4938806;28;20856;-73
2022/07/12 08:51:31;;;;;;;1.00;0.55;;;24.50;56.20;;;;;;4953624;28;20130;-72
2022/07/12 08:54:07;;;;;;;0.47;0.47;;;24.60;55.80;;;;;;4962579;28;20043;-72
2022/07/12 08:56:34;;;;;;;2.20;0.50;;;24.80;54.80;;;;;;4960107;28;20687;-72
2022/07/12 08:59:26;;;;;;;0.40;0.40;;;25.00;55.10;;;;;;4951054;28;20549;-72
2022/07/12 09:01:52;;;;;;;1.70;0.60;;;25.30;54.50;;;;;;4938593;28;20619;-73
2022/07/12 09:04:19;;;;;;;0.88;0.50;;;25.50;54.60;;;;;;4938680;28;20101;-72
2022/07/12 09:06:46;;;;;;;0.88;0.50;;;25.70;54.10;;;;;;4933619;28;20043;-73
2022/07/12 09:09:11;;;;;;;2.05;0.40;;;25.90;53.60;;;;;;4927507;28;20547;-72
2022/07/12 09:11:38;;;;;;;2.45;0.40;;;26.10;53.00;;;;;;4927046;28;20043;-72
2022/07/12 09:14:03;;;;;;;2.35;0.47;;;26.30;52.70;;;;;;4963899;28;20097;-73
2022/07/12 09:16:29;;;;;;;1.13;0.45;;;26.50;52.30;;;;;;4961785;28;20139;-72
2022/07/12 09:19:16;;;;;;;0.93;0.50;;;26.70;51.80;;;;;;4946306;28;20043;-73
2022/07/12 09:21:52;;;;;;;1.80;0.40;;;26.80;50.50;;;;;;4940180;28;20056;-73
2022/07/12 09:24:18;;;;;;;1.02;0.50;;;27.00;50.80;;;;;;4946262;28;20377;-73
2022/07/12 09:26:44;;;;;;;1.85;0.70;;;27.20;50.60;;;;;;4967452;28;20851;-72
2022/07/12 09:29:10;;;;;;;0.50;0.50;;;27.30;50.20;;;;;;4948147;28;20043;-72
2022/07/12 09:37:18;;;;;;;0.30;0.30;;;27.80;49.30;;;;;;4944509;28;20116;-72
2022/07/12 09:39:43;;;;;;;0.50;0.40;;;28.00;48.90;;;;;;4937507;28;20694;-73
2022/07/12 09:42:12;;;;;;;1.98;0.47;;;28.20;48.60;;;;;;4966742;28;20577;-72
2022/07/12 09:44:38;;;;;;;4.00;0.50;;;28.40;48.40;;;;;;4943181;28;20032;-72
2022/07/12 09:47:05;;;;;;;0.40;0.40;;;28.70;48.00;;;;;;4951649;28;20043;-73
2022/07/12 09:49:32;;;;;;;0.50;0.50;;;28.80;47.60;;;;;;4951626;28;20031;-73
2022/07/12 09:51:57;;;;;;;0.40;0.40;;;29.00;47.20;;;;;;4959512;28;20088;-72
2022/07/12 09:54:25;;;;;;;0.28;0.28;;;29.20;46.90;;;;;;4936535;28;20039;-73
2022/07/12 09:56:53;;;;;;;0.77;0.30;;;29.40;46.50;;;;;;4955652;28;20120;-73
2022/07/12 09:59:20;;;;;;;3.42;0.50;;;29.50;46.10;;;;;;4957767;28;20043;-72
2022/07/12 10:01:45;;;;;;;2.22;0.60;;;29.70;45.80;;;;;;4951247;28;20062;-72
2022/07/12 10:04:11;;;;;;;1.40;0.30;;;29.90;45.50;;;;;;4954904;28;20408;-72
2022/07/12 10:06:37;;;;;;;0.30;0.30;;;30.10;45.10;;;;;;4951401;28;20043;-73
2022/07/12 10:09:03;;;;;;;1.95;0.30;;;30.30;44.80;;;;;;4919785;28;20081;-73
2022/07/12 10:11:28;;;;;;;0.40;0.40;;;30.50;44.40;;;;;;4942252;28;20038;-72
2022/07/12 10:13:54;;;;;;;1.48;0.30;;;30.80;44.10;;;;;;4943649;28;20043;-72
2022/07/12 10:16:28;;;;;;;0.30;0.30;;;30.90;43.70;;;;;;4941438;28;20039;-71
2022/07/12 10:19:25;;;;;;;1.95;0.47;;;31.10;42.70;;;;;;4927721;28;20109;-74
2022/07/12 10:21:52;;;;;;;1.05;0.30;;;31.10;41.80;;;;;;4955890;28;20027;-73
2022/07/12 10:24:32;;;;;;;1.33;0.40;;;31.30;42.80;;;;;;4956593;28;20062;-73
2022/07/12 10:26:58;;;;;;;2.37;0.50;;;31.40;41.60;;;;;;4932786;28;20089;-72
2022/07/12 10:29:25;;;;;;;0.73;0.50;;;31.60;42.20;;;;;;4950839;28;20080;-72
2022/07/12 10:31:50;;;;;;;1.50;0.40;;;31.80;41.90;;;;;;4943323;28;20034;-73
2022/07/12 10:34:27;;;;;;;2.55;0.45;;;31.90;41.50;;;;;;4954659;28;20042;-72
2022/07/12 10:36:55;;;;;;;0.60;0.38;;;32.10;40.70;;;;;;4951150;28;20045;-74
2022/07/12 10:39:22;;;;;;;1.30;0.30;;;32.20;40.90;;;;;;4965794;28;20058;-74
2022/07/12 10:42:05;;;;;;;1.90;0.50;;;32.40;41.40;;;;;;4936362;28;20171;-73
2022/07/12 10:44:41;;;;;;;1.35;0.40;;;32.50;39.30;;;;;;4950595;28;20495;-73
2022/07/12 10:47:07;;;;;;;1.30;0.43;;;32.50;39.50;;;;;;4958271;28;20566;-72
2022/07/12 10:49:33;;;;;;;3.35;0.50;;;32.50;39.90;;;;;;4953775;28;20388;-73
2022/07/12 10:52:11;;;;;;;0.60;0.40;;;32.60;39.70;;;;;;4978475;28;20113;-74
2022/07/12 10:54:40;;;;;;;1.15;0.55;;;32.80;38.70;;;;;;4952889;28;20069;-74
2022/07/12 10:57:06;;;;;;;1.83;0.40;;;33.00;39.30;;;;;;4943143;28;20049;-73
2022/07/12 10:59:36;;;;;;;0.40;0.40;;;33.20;39.00;;;;;;4931817;28;20062;-73
2022/07/12 11:02:02;;;;;;;0.30;0.30;;;33.40;38.50;;;;;;4956324;28;20044;-75
2022/07/12 11:04:28;;;;;;;1.13;0.30;;;33.50;38.50;;;;;;4941069;28;20038;-74
2022/07/12 11:06:58;;;;;;;1.08;0.50;;;33.60;38.20;;;;;;4925114;28;20049;-72
2022/07/12 11:09:24;;;;;;;0.83;0.30;;;33.50;37.70;;;;;;4934687;28;20065;-73
2022/07/12 11:11:50;;;;;;;0.43;0.30;;;33.60;37.70;;;;;;4953198;28;20074;-70
2022/07/12 11:14:23;;;;;;;0.30;0.30;;;33.70;37.60;;;;;;4952783;28;20574;-72
2022/07/12 11:16:49;;;;;;;0.50;0.20;;;33.90;36.80;;;;;;4945990;28;20171;-73
2022/07/12 11:19:15;;;;;;;0.38;0.35;;;34.10;37.10;;;;;;4940010;28;20046;-72
2022/07/12 11:21:44;;;;;;;0.30;0.30;;;34.20;36.80;;;;;;4939737;28;20563;-72
2022/07/12 11:24:19;;;;;;;1.13;0.75;;;34.40;36.10;;;;;;4932756;28;20081;-72
2022/07/12 11:26:46;;;;;;;1.92;0.30;;;34.50;35.00;;;;;;4929703;28;20428;-72
2022/07/12 11:29:12;;;;;;;0.60;0.20;;;34.60;35.70;;;;;;4946021;28;20034;-71
2022/07/12 11:31:37;;;;;;;0.30;0.30;;;34.70;35.80;;;;;;4953619;28;20045;-72
2022/07/12 11:34:03;;;;;;;0.50;0.30;;;34.70;36.20;;;;;;4938878;28;20065;-71
2022/07/12 11:36:28;;;;;;;0.30;0.28;;;34.80;35.30;;;;;;4944091;28;20026;-72
2022/07/12 11:38:54;;;;;;;0.45;0.30;;;34.90;35.00;;;;;;4925209;28;20129;-73
2022/07/12 11:41:19;;;;;;;0.90;0.20;;;34.90;34.70;;;;;;4962018;28;20137;-70
2022/07/12 11:43:45;;;;;;;1.85;0.30;;;35.10;34.60;;;;;;4944081;28;20051;-72
2022/07/12 11:46:11;;;;;;;0.45;0.40;;;35.20;34.40;;;;;;4960063;28;20131;-72
2022/07/12 11:48:37;;;;;;;0.40;0.20;;;35.20;34.00;;;;;;4964414;28;20463;-71
2022/07/12 11:51:06;;;;;;;0.30;0.20;;;35.20;33.80;;;;;;4948560;28;20085;-72
2022/07/12 11:53:31;;;;;;;0.20;0.20;;;35.30;33.70;;;;;;4934541;28;20548;-72
2022/07/12 11:56:01;;;;;;;0.30;0.30;;;35.40;33.60;;;;;;4934603;28;20089;-72
2022/07/12 11:58:27;;;;;;;0.30;0.30;;;35.40;33.40;;;;;;4965191;28;20039;-72
2022/07/12 12:00:52;;;;;;;0.90;0.40;;;35.40;33.20;;;;;;4936000;28;20097;-71
2022/07/12 12:03:19;;;;;;;0.30;0.20;;;35.50;33.10;;;;;;4958255;28;20469;-70
2022/07/12 12:05:48;;;;;;;0.10;0.10;;;35.60;33.00;;;;;;4921618;28;20042;-72
2022/07/12 12:08:14;;;;;;;0.47;0.25;;;35.70;33.00;;;;;;4934056;28;20037;-70
2022/07/12 12:10:40;;;;;;;0.15;0.15;;;35.70;32.90;;;;;;4955153;28;20039;-71
2022/07/12 12:13:13;;;;;;;0.43;0.20;;;35.80;32.50;;;;;;4951396;28;20048;-72
2022/07/12 12:15:38;;;;;;;0.73;0.30;;;35.90;32.00;;;;;;4966321;28;20705;-71
2022/07/12 12:18:05;;;;;;;0.22;0.20;;;36.00;32.30;;;;;;4952977;28;20044;-72
2022/07/12 12:20:37;;;;;;;0.95;0.20;;;36.10;32.10;;;;;;4938807;28;20122;-70
2022/07/12 12:23:03;;;;;;;0.52;0.28;;;36.20;31.70;;;;;;4975473;28;20147;-72
2022/07/12 12:25:30;;;;;;;5.47;0.47;;;36.20;31.70;;;;;;4953472;28;20129;-71
2022/07/12 12:27:57;;;;;;;2.05;0.25;;;36.30;31.70;;;;;;4942862;28;20040;-70
2022/07/12 12:30:23;;;;;;;0.45;0.10;;;36.40;31.50;;;;;;4934130;28;20105;-71
2022/07/12 12:33:01;;;;;;;1.98;0.20;;;36.50;31.20;;;;;;4930278;28;20519;-71
2022/07/12 12:35:31;;;;;;;0.75;0.25;;;36.60;30.30;;;;;;4940108;28;21551;-71
2022/07/12 12:37:57;;;;;;;0.30;0.30;;;36.70;30.80;;;;;;4934357;28;20048;-71
2022/07/12 12:40:28;;;;;;;0.55;0.10;;;36.70;30.60;;;;;;4946901;28;20791;-71
2022/07/12 12:43:04;;;;;;;0.30;0.30;;;36.80;30.30;;;;;;4930813;28;20043;-71
2022/07/12 12:45:30;;;;;;;0.10;0.10;;;36.80;30.40;;;;;;4946913;28;20043;-71
2022/07/12 12:47:57;;;;;;;1.75;0.20;;;36.90;30.30;;;;;;4961041;28;20040;-71
2022/07/12 12:50:39;;;;;;;1.38;0.22;;;36.90;30.20;;;;;;4947001;28;20044;-71
2022/07/12 12:53:14;;;;;;;0.20;0.20;;;37.00;29.50;;;;;;4935713;28;20036;-72
2022/07/12 12:55:41;;;;;;;0.65;0.20;;;37.00;29.80;;;;;;4928790;28;20535;-72